Spencer, Massachusetts
Current Conditions -  °F | °C
As of 8:13 PM on Tuesday 21 Oct 2014 (Local Time) from KORH Reporting Station
Overcast Overcast  
Wind Chill: 53°   Ceiling: 400
Heat Index: 53°   Visibility: 10mi
Dew Point: 51°   Wind: 7mph
Humidity: 93%   Direction: 20°NNE
Pressure: 29.94"   Gusts: NA
Location:  42.24°N, 71.99°W
Report Text: KORH 220013Z 02006KT 10SM OVC004 12/11 A2994 RMK AO2 T01170106
Loading
Personal Weather Stations






























Interactive Weather Map
Tropical Storm Tracking
New forecast layout! Learn more

10-Day Weather Forecast

Advertisements
Track Severe Weather on mobile